Time;durP1;ratioP1;P1;durP2;ratioP2;P2;SDS_P1;SDS_P2;PMS_P1;PMS_P2;Temp;Humidity;BMP_temperature;BMP_pressure;BME280_temperature;BME280_humidity;BME280_pressure;Samples;Min_cycle;Max_cycle;Signal;HPM_P1;HPM_P2
2023/07/08 00:00:18;;;;;;;9.45;5.07;;;27.40;59.60;;;;;;5028401;28;20163;-53
2023/07/08 00:02:44;;;;;;;11.55;4.82;;;27.40;59.60;;;;;;5012514;28;20038;-52
2023/07/08 00:05:11;;;;;;;10.02;5.50;;;27.30;59.50;;;;;;5010415;28;20065;-53
2023/07/08 00:07:37;;;;;;;7.75;4.82;;;27.30;59.50;;;;;;5008980;28;20054;-53
2023/07/08 00:10:20;;;;;;;10.15;4.82;;;27.30;59.60;;;;;;5024339;28;20030;-53
2023/07/08 00:12:51;;;;;;;8.13;5.03;;;27.30;59.50;;;;;;5010033;28;20042;-50
2023/07/08 00:15:17;;;;;;;9.20;5.07;;;27.30;59.50;;;;;;5034090;28;20120;-50
2023/07/08 00:17:42;;;;;;;7.32;5.13;;;27.20;59.50;;;;;;5024444;28;20030;-53
2023/07/08 00:20:28;;;;;;;7.63;4.88;;;27.20;59.50;;;;;;5026807;28;20026;-51
2023/07/08 00:22:54;;;;;;;7.88;4.65;;;27.20;59.50;;;;;;5008767;28;20057;-51
2023/07/08 00:25:20;;;;;;;8.63;4.75;;;27.20;59.60;;;;;;5008337;28;20034;-51
2023/07/08 00:27:47;;;;;;;8.70;4.90;;;27.20;59.60;;;;;;5010570;28;20030;-51
2023/07/08 00:30:23;;;;;;;7.28;4.65;;;27.10;59.60;;;;;;5027982;28;20048;-51
2023/07/08 00:32:53;;;;;;;8.40;5.28;;;27.10;59.70;;;;;;5028412;28;20053;-51
2023/07/08 00:35:20;;;;;;;9.00;4.55;;;27.10;59.70;;;;;;5019366;28;20022;-51
2023/07/08 00:37:46;;;;;;;12.02;5.20;;;27.00;59.70;;;;;;5029008;28;20025;-51
2023/07/08 00:40:21;;;;;;;6.68;4.10;;;27.00;59.80;;;;;;5029062;28;20049;-51
2023/07/08 00:42:46;;;;;;;10.57;4.37;;;27.00;60.00;;;;;;5007557;28;20034;-52
2023/07/08 00:45:32;;;;;;;9.63;5.38;;;27.00;60.20;;;;;;5010311;28;20022;-52
2023/07/08 00:48:06;;;;;;;9.23;4.97;;;26.90;60.20;;;;;;5014053;28;20101;-52
2023/07/08 00:50:31;;;;;;;7.25;5.20;;;26.90;60.40;;;;;;5027127;28;20478;-52
2023/07/08 00:53:33;;;;;;;7.07;4.63;;;26.90;60.50;;;;;;5027839;28;20101;-52
2023/07/08 00:56:04;;;;;;;8.23;4.78;;;26.80;60.50;;;;;;5032474;28;20037;-51
2023/07/08 00:58:37;;;;;;;7.45;4.82;;;26.80;60.60;;;;;;5007884;28;20413;-52
2023/07/08 01:01:04;;;;;;;8.65;4.82;;;26.80;60.70;;;;;;5023463;28;20026;-52
2023/07/08 01:03:29;;;;;;;7.85;4.88;;;26.70;60.90;;;;;;5027413;28;20061;-52
2023/07/08 01:05:59;;;;;;;7.78;4.88;;;26.70;61.00;;;;;;5010026;28;20030;-52
2023/07/08 01:08:28;;;;;;;6.95;4.70;;;26.70;61.20;;;;;;5015385;28;20264;-53
2023/07/08 01:10:56;;;;;;;6.90;4.07;;;26.60;61.30;;;;;;5011590;28;20029;-54
2023/07/08 01:13:21;;;;;;;8.73;5.03;;;26.60;61.40;;;;;;4999932;28;20034;-53
2023/07/08 01:15:48;;;;;;;6.72;4.80;;;26.60;61.80;;;;;;5017577;28;20041;-53
2023/07/08 01:18:16;;;;;;;7.68;4.88;;;26.60;61.90;;;;;;5007402;28;20034;-53
2023/07/08 01:20:41;;;;;;;8.07;4.97;;;26.60;62.20;;;;;;5012626;28;20030;-53
2023/07/08 01:23:07;;;;;;;9.38;5.00;;;26.50;62.40;;;;;;5026051;28;20069;-53
2023/07/08 01:25:33;;;;;;;9.18;5.20;;;26.50;62.70;;;;;;5017652;28;20030;-53
2023/07/08 01:27:58;;;;;;;9.60;5.10;;;26.40;62.70;;;;;;5026988;28;20022;-53
2023/07/08 01:30:25;;;;;;;8.05;5.18;;;26.40;62.90;;;;;;5026351;28;20110;-52
2023/07/08 01:32:54;;;;;;;8.02;4.90;;;26.40;63.00;;;;;;5007202;28;20030;-53
2023/07/08 01:35:20;;;;;;;6.65;4.65;;;26.40;63.30;;;;;;5001010;28;20026;-53
2023/07/08 01:37:53;;;;;;;11.15;4.70;;;26.30;63.50;;;;;;5010420;28;20041;-53
2023/07/08 01:40:19;;;;;;;7.13;4.40;;;26.30;63.70;;;;;;5010400;28;20037;-53
2023/07/08 01:42:45;;;;;;;8.02;5.00;;;26.20;63.90;;;;;;5027133;28;20038;-53
2023/07/08 01:45:14;;;;;;;10.93;4.88;;;26.20;64.00;;;;;;5011884;28;20027;-53
2023/07/08 01:47:40;;;;;;;10.27;4.65;;;26.20;64.20;;;;;;5009930;28;20033;-53
2023/07/08 01:50:07;;;;;;;6.78;4.57;;;26.20;64.40;;;;;;5009983;28;20018;-53
2023/07/08 01:52:32;;;;;;;7.78;4.72;;;26.20;65.20;;;;;;5010243;28;20085;-53
2023/07/08 01:54:58;;;;;;;7.50;4.63;;;26.10;65.40;;;;;;5027406;28;20029;-53
2023/07/08 01:57:23;;;;;;;8.50;4.75;;;26.10;65.50;;;;;;5021767;28;20045;-54
2023/07/08 01:59:50;;;;;;;8.02;4.65;;;26.10;65.30;;;;;;5026655;28;20033;-54
2023/07/08 02:02:15;;;;;;;9.38;4.20;;;26.10;65.40;;;;;;5002453;28;20126;-53
2023/07/08 02:04:41;;;;;;;9.30;4.75;;;26.10;65.40;;;;;;5006065;28;20034;-53
2023/07/08 02:07:06;;;;;;;6.90;4.28;;;26.00;65.50;;;;;;5006210;28;20027;-53
2023/07/08 02:09:32;;;;;;;10.25;4.53;;;26.00;65.90;;;;;;5008538;28;20057;-53
2023/07/08 02:11:57;;;;;;;9.57;4.53;;;26.00;66.20;;;;;;5007288;28;20031;-53
2023/07/08 02:14:23;;;;;;;6.32;4.72;;;26.00;66.70;;;;;;5011062;28;20031;-53
2023/07/08 02:16:49;;;;;;;8.60;4.15;;;26.00;66.30;;;;;;5025481;28;20482;-53
2023/07/08 02:19:14;;;;;;;7.85;4.13;;;26.00;66.30;;;;;;5025839;28;20049;-54
2023/07/08 02:21:40;;;;;;;9.18;5.20;;;25.90;66.40;;;;;;5025974;28;20026;-52
2023/07/08 02:24:05;;;;;;;10.10;5.68;;;25.90;66.70;;;;;;5026665;28;20041;-53
2023/07/08 02:26:34;;;;;;;10.07;5.13;;;25.90;66.90;;;;;;5019959;28;20444;-53
2023/07/08 02:29:00;;;;;;;8.32;5.30;;;25.90;67.00;;;;;;5007470;28;20475;-53
2023/07/08 02:31:25;;;;;;;8.65;5.38;;;25.90;67.20;;;;;;5017142;28;20117;-53
2023/07/08 02:33:52;;;;;;;10.07;5.20;;;25.80;67.20;;;;;;5018118;28;20064;-53
2023/07/08 02:36:17;;;;;;;9.45;5.30;;;25.80;67.40;;;;;;5025760;28;20030;-53
2023/07/08 02:38:43;;;;;;;6.72;4.78;;;25.80;67.80;;;;;;5009295;28;20036;-53
2023/07/08 02:41:08;;;;;;;8.88;5.05;;;25.80;68.40;;;;;;5026945;28;20034;-53
2023/07/08 02:43:34;;;;;;;8.25;4.63;;;25.80;68.50;;;;;;5025732;28;20030;-53
2023/07/08 02:45:59;;;;;;;7.45;4.97;;;25.70;68.00;;;;;;5023899;28;20018;-53
2023/07/08 02:48:25;;;;;;;7.72;4.53;;;25.80;68.00;;;;;;5018814;28;20106;-53
2023/07/08 02:50:50;;;;;;;5.88;3.85;;;25.80;68.60;;;;;;5025503;28;20030;-53
2023/07/08 02:53:16;;;;;;;10.82;5.20;;;25.80;68.90;;;;;;5009012;28;20035;-53
2023/07/08 02:55:42;;;;;;;10.40;5.35;;;25.70;69.10;;;;;;5006907;28;20040;-53
2023/07/08 02:58:09;;;;;;;10.30;4.70;;;25.70;69.00;;;;;;5000909;28;20029;-54
2023/07/08 03:00:37;;;;;;;8.60;5.20;;;25.70;69.20;;;;;;5025148;28;20030;-54
2023/07/08 03:03:03;;;;;;;7.05;4.85;;;25.70;69.20;;;;;;5022684;28;20070;-54
2023/07/08 03:05:29;;;;;;;7.95;4.93;;;25.70;69.30;;;;;;5020979;28;20086;-54
2023/07/08 03:07:54;;;;;;;8.77;4.90;;;25.60;69.10;;;;;;5025591;28;20030;-54
2023/07/08 03:10:20;;;;;;;8.75;4.93;;;25.60;69.20;;;;;;5007990;28;20026;-54
2023/07/08 03:12:45;;;;;;;6.53;4.35;;;25.70;69.50;;;;;;5019422;28;20023;-54
2023/07/08 03:15:11;;;;;;;6.72;4.38;;;25.60;69.80;;;;;;5006747;28;20030;-54
2023/07/08 03:17:36;;;;;;;8.30;4.40;;;25.60;70.10;;;;;;5017388;28;20037;-54
2023/07/08 03:20:06;;;;;;;20.08;4.80;;;25.60;70.20;;;;;;5026022;28;20022;-54
2023/07/08 03:22:31;;;;;;;5.45;4.53;;;25.60;70.30;;;;;;5002513;28;20034;-54
2023/07/08 03:24:57;;;;;;;8.45;4.75;;;25.50;70.20;;;;;;5025070;28;20033;-54
2023/07/08 03:27:22;;;;;;;8.45;4.97;;;25.50;70.10;;;;;;5025837;28;20030;-54
2023/07/08 03:29:48;;;;;;;10.18;4.80;;;25.50;70.00;;;;;;5005239;28;20390;-54
2023/07/08 03:32:13;;;;;;;8.77;4.85;;;25.50;70.00;;;;;;5005520;28;20060;-54
2023/07/08 03:34:39;;;;;;;8.35;5.38;;;25.40;69.80;;;;;;5021641;28;20030;-54
2023/07/08 03:37:05;;;;;;;7.50;4.60;;;25.40;70.00;;;;;;5024718;28;20034;-54
2023/07/08 03:39:33;;;;;;;6.65;5.07;;;25.40;70.20;;;;;;5019374;28;20027;-54
2023/07/08 03:41:59;;;;;;;7.40;4.70;;;25.40;70.20;;;;;;5006240;28;20489;-54
2023/07/08 03:44:25;;;;;;;8.85;4.70;;;25.40;70.30;;;;;;5024863;28;20062;-54
2023/07/08 03:46:50;;;;;;;7.65;4.72;;;25.40;70.40;;;;;;5016997;28;20030;-54
2023/07/08 03:49:21;;;;;;;8.95;4.78;;;25.40;70.40;;;;;;5022125;28;20057;-54
2023/07/08 03:51:47;;;;;;;7.47;4.95;;;25.30;70.40;;;;;;5006620;28;20030;-54
2023/07/08 03:54:13;;;;;;;6.90;4.55;;;25.30;70.40;;;;;;5014646;28;20029;-54
2023/07/08 03:56:38;;;;;;;6.53;4.75;;;25.30;70.40;;;;;;5007775;28;20029;-54
2023/07/08 03:59:04;;;;;;;14.70;7.60;;;25.30;70.40;;;;;;5024847;28;20494;-54
2023/07/08 04:01:29;;;;;;;9.25;5.60;;;25.30;70.40;;;;;;5026053;28;20430;-55
2023/07/08 04:03:56;;;;;;;10.13;5.80;;;25.30;70.30;;;;;;5024724;28;20061;-55
2023/07/08 04:06:21;;;;;;;11.45;6.20;;;25.30;70.50;;;;;;5015414;28;20134;-54
2023/07/08 04:08:47;;;;;;;10.32;5.60;;;25.20;70.50;;;;;;5020524;28;20034;-55
2023/07/08 04:11:17;;;;;;;12.10;6.55;;;25.10;70.50;;;;;;5005124;28;20023;-54
2023/07/08 04:13:43;;;;;;;9.85;6.40;;;25.20;70.50;;;;;;5012740;28;20489;-55
2023/07/08 04:16:29;;;;;;;9.57;6.20;;;25.20;71.30;;;;;;5016527;28;20030;-54
2023/07/08 04:18:55;;;;;;;8.30;5.25;;;25.10;70.50;;;;;;5010867;28;20437;-54
2023/07/08 04:21:22;;;;;;;8.73;5.85;;;25.10;70.60;;;;;;5015054;28;20161;-55
2023/07/08 04:23:48;;;;;;;11.82;6.97;;;25.10;70.80;;;;;;4988553;28;20050;-54
2023/07/08 04:26:13;;;;;;;10.00;6.57;;;25.00;71.40;;;;;;5020248;28;20034;-55
2023/07/08 04:28:39;;;;;;;11.88;6.40;;;25.00;70.90;;;;;;5027892;28;20538;-55
2023/07/08 04:31:04;;;;;;;9.88;6.07;;;25.00;71.00;;;;;;5005161;28;20048;-55
2023/07/08 04:33:30;;;;;;;14.98;6.38;;;24.90;71.10;;;;;;5028002;28;20022;-55
2023/07/08 04:35:56;;;;;;;8.88;6.13;;;24.90;71.30;;;;;;5023418;28;20040;-55
2023/07/08 04:38:23;;;;;;;7.18;5.13;;;24.90;71.40;;;;;;5008145;28;20031;-55
2023/07/08 04:40:49;;;;;;;11.63;5.95;;;24.90;71.50;;;;;;5012559;28;20026;-55
2023/07/08 04:43:14;;;;;;;7.68;5.32;;;24.90;71.40;;;;;;5011470;28;20243;-54
2023/07/08 04:45:41;;;;;;;6.63;5.55;;;24.90;71.50;;;;;;5028685;28;20026;-55
2023/07/08 04:48:12;;;;;;;8.65;5.03;;;24.80;71.50;;;;;;5043896;28;20030;-55
2023/07/08 04:50:45;;;;;;;7.97;4.90;;;24.80;71.60;;;;;;5027813;28;20030;-54
2023/07/08 04:53:11;;;;;;;7.32;5.13;;;24.80;71.60;;;;;;5027424;28;20033;-53
2023/07/08 04:55:37;;;;;;;9.05;4.75;;;24.80;71.70;;;;;;5014894;28;20027;-52
2023/07/08 04:58:03;;;;;;;10.73;4.78;;;24.80;71.70;;;;;;5007970;28;20031;-53
2023/07/08 05:00:28;;;;;;;7.28;4.68;;;24.70;71.80;;;;;;5011034;28;20037;-53
2023/07/08 05:02:54;;;;;;;64.22;11.48;;;24.60;71.90;;;;;;5009708;28;20328;-53
2023/07/08 05:05:20;;;;;;;95.00;13.13;;;24.60;71.80;;;;;;5008928;28;20034;-53
2023/07/08 05:07:45;;;;;;;38.15;9.90;;;24.60;71.80;;;;;;5007735;28;20030;-53
2023/07/08 05:10:11;;;;;;;36.00;8.40;;;24.60;71.80;;;;;;5008940;28;20034;-53
2023/07/08 05:12:37;;;;;;;54.90;10.05;;;24.60;72.00;;;;;;5013847;28;20036;-53
2023/07/08 05:15:03;;;;;;;31.13;8.50;;;24.50;72.00;;;;;;5026459;28;20037;-53
2023/07/08 05:17:29;;;;;;;41.72;8.70;;;24.50;72.10;;;;;;5015940;28;20050;-53
2023/07/08 05:19:57;;;;;;;34.03;7.57;;;24.50;72.20;;;;;;5026376;28;20045;-54
2023/07/08 05:22:25;;;;;;;31.13;6.93;;;24.50;72.30;;;;;;5011666;28;20030;-53
2023/07/08 05:24:52;;;;;;;28.30;6.50;;;24.50;72.30;;;;;;5007281;28;20037;-53
2023/07/08 05:27:18;;;;;;;23.48;7.55;;;24.50;72.40;;;;;;5007361;28;20028;-53
2023/07/08 05:29:45;;;;;;;28.75;7.68;;;24.40;72.50;;;;;;5020785;28;20038;-53
2023/07/08 05:32:11;;;;;;;40.20;6.78;;;24.40;72.50;;;;;;5014164;28;20041;-53
2023/07/08 05:34:36;;;;;;;53.83;8.05;;;24.40;73.20;;;;;;5010455;28;20046;-53
2023/07/08 05:37:03;;;;;;;34.42;7.10;;;24.30;72.40;;;;;;5027127;28;20034;-53
2023/07/08 05:39:30;;;;;;;21.30;6.47;;;24.30;72.40;;;;;;5026871;28;20029;-53
2023/07/08 05:41:55;;;;;;;28.88;7.25;;;24.30;72.40;;;;;;5026555;28;20045;-53
2023/07/08 05:44:22;;;;;;;37.58;6.00;;;24.30;72.40;;;;;;5022324;28;20050;-53
2023/07/08 05:46:48;;;;;;;27.35;6.30;;;24.40;72.50;;;;;;5027940;28;20026;-53
2023/07/08 05:49:14;;;;;;;19.05;6.18;;;24.30;72.50;;;;;;5004913;28;20060;-53
2023/07/08 05:51:39;;;;;;;33.70;7.15;;;24.30;72.40;;;;;;5012567;28;20026;-53
2023/07/08 05:54:05;;;;;;;21.92;6.30;;;24.30;72.40;;;;;;5010862;28;20042;-53
2023/07/08 05:56:31;;;;;;;20.40;6.53;;;24.30;72.40;;;;;;5027355;28;20018;-53
2023/07/08 05:58:56;;;;;;;20.92;5.88;;;24.30;72.50;;;;;;5015996;28;20034;-54
2023/07/08 06:01:22;;;;;;;23.77;5.70;;;24.30;72.70;;;;;;5005365;28;20056;-54
2023/07/08 06:03:48;;;;;;;20.90;5.38;;;24.30;72.80;;;;;;5006283;28;20409;-54
2023/07/08 06:06:13;;;;;;;20.95;5.63;;;24.30;72.90;;;;;;4996375;28;20026;-54
2023/07/08 06:08:39;;;;;;;23.58;5.70;;;24.30;73.00;;;;;;5013094;28;20805;-54
2023/07/08 06:11:04;;;;;;;21.02;5.45;;;24.30;72.90;;;;;;5006186;28;20038;-54
2023/07/08 06:13:30;;;;;;;17.40;5.28;;;24.30;72.70;;;;;;5019703;28;20072;-54
2023/07/08 06:15:56;;;;;;;13.38;5.40;;;24.30;72.70;;;;;;5007827;28;20033;-54
2023/07/08 06:18:21;;;;;;;15.90;4.95;;;24.30;72.60;;;;;;5006321;28;20031;-54
2023/07/08 06:20:53;;;;;;;20.95;5.00;;;24.30;72.80;;;;;;5021883;28;20085;-54
2023/07/08 06:23:19;;;;;;;17.45;5.40;;;24.30;73.10;;;;;;5006244;28;20514;-54
2023/07/08 06:25:45;;;;;;;21.15;5.05;;;24.20;73.40;;;;;;5017360;28;20045;-54
2023/07/08 06:28:10;;;;;;;20.45;5.75;;;24.20;73.50;;;;;;5025083;28;20116;-54
2023/07/08 06:30:37;;;;;;;17.15;5.57;;;24.20;73.40;;;;;;5027089;28;20026;-54
2023/07/08 06:33:03;;;;;;;9.15;4.50;;;24.20;73.30;;;;;;5025249;28;20030;-54
2023/07/08 06:35:28;;;;;;;19.35;5.35;;;24.30;73.30;;;;;;5024476;28;20044;-54
2023/07/08 06:37:54;;;;;;;18.33;4.40;;;24.20;73.20;;;;;;5025888;28;20033;-54
2023/07/08 06:40:19;;;;;;;15.50;5.18;;;24.20;73.10;;;;;;5026668;28;20040;-54
2023/07/08 06:42:45;;;;;;;16.33;5.00;;;24.30;73.20;;;;;;5024336;28;20092;-54
2023/07/08 06:45:11;;;;;;;17.05;4.55;;;24.30;73.10;;;;;;4992382;28;20026;-54
2023/07/08 06:47:36;;;;;;;13.45;4.35;;;24.30;73.20;;;;;;5005646;28;20030;-54
2023/07/08 06:50:02;;;;;;;13.50;4.40;;;24.30;73.20;;;;;;4989321;28;20018;-54
2023/07/08 06:52:33;;;;;;;19.77;4.57;;;24.30;73.20;;;;;;5006573;28;20052;-54
2023/07/08 06:55:00;;;;;;;13.98;4.20;;;24.30;73.40;;;;;;5026611;28;20029;-54
2023/07/08 06:57:26;;;;;;;14.25;4.43;;;24.30;73.30;;;;;;5026817;28;20038;-54
2023/07/08 06:59:51;;;;;;;12.13;4.28;;;24.30;73.10;;;;;;5025332;28;20036;-55
2023/07/08 07:02:17;;;;;;;16.08;4.28;;;24.30;72.60;;;;;;5024652;28;20033;-54
2023/07/08 07:04:43;;;;;;;13.70;4.65;;;24.30;72.50;;;;;;5022908;28;20035;-54
2023/07/08 07:07:09;;;;;;;10.10;4.25;;;24.30;72.30;;;;;;5007101;28;20062;-54
2023/07/08 07:09:34;;;;;;;15.35;4.20;;;24.30;72.30;;;;;;5016317;28;20034;-54
2023/07/08 07:12:00;;;;;;;13.18;4.45;;;24.30;72.50;;;;;;5026699;28;20033;-54
2023/07/08 07:14:26;;;;;;;11.13;3.45;;;24.30;73.20;;;;;;5020614;28;20038;-54
2023/07/08 07:16:51;;;;;;;14.70;4.15;;;24.20;73.30;;;;;;5026669;28;20037;-54
2023/07/08 07:19:17;;;;;;;5.82;3.08;;;24.20;73.30;;;;;;5023402;28;20110;-54
2023/07/08 07:21:43;;;;;;;7.38;3.05;;;24.20;74.00;;;;;;5026384;28;20036;-54
2023/07/08 07:24:08;;;;;;;7.53;2.67;;;24.20;74.60;;;;;;5026414;28;20030;-54
2023/07/08 07:26:35;;;;;;;6.60;2.38;;;24.20;75.50;;;;;;5026526;28;20033;-54
2023/07/08 07:29:01;;;;;;;5.63;2.90;;;24.10;75.90;;;;;;5025303;28;20030;-55
2023/07/08 07:31:27;;;;;;;4.35;2.25;;;24.10;76.10;;;;;;5016916;28;20022;-54
2023/07/08 07:33:52;;;;;;;5.18;2.42;;;24.00;76.40;;;;;;5022702;28;20390;-54
2023/07/08 07:36:18;;;;;;;2.72;1.85;;;24.00;77.00;;;;;;5020474;28;20078;-53
2023/07/08 07:38:43;;;;;;;3.20;2.22;;;23.90;77.30;;;;;;5016183;28;20034;-54
2023/07/08 07:41:10;;;;;;;4.22;2.10;;;23.90;77.50;;;;;;5024910;28;20041;-54
2023/07/08 07:43:36;;;;;;;5.10;2.25;;;23.90;77.70;;;;;;5024936;28;20029;-54
2023/07/08 07:46:02;;;;;;;4.30;2.17;;;23.80;77.80;;;;;;5026281;28;20036;-54
2023/07/08 07:48:28;;;;;;;6.82;1.95;;;23.80;78.10;;;;;;5020745;28;20034;-54
2023/07/08 07:50:53;;;;;;;2.90;1.80;;;23.80;78.20;;;;;;5024780;28;20077;-54
2023/07/08 07:53:19;;;;;;;3.88;2.05;;;23.80;78.20;;;;;;5023708;28;20517;-54
2023/07/08 07:55:44;;;;;;;19.52;2.47;;;23.80;78.30;;;;;;5006362;28;20034;-54
2023/07/08 07:58:11;;;;;;;3.97;1.95;;;23.80;78.40;;;;;;5006499;28;20038;-54
2023/07/08 08:00:38;;;;;;;3.28;1.92;;;23.80;78.80;;;;;;5007458;28;20030;-54
2023/07/08 08:03:03;;;;;;;5.40;2.30;;;23.80;79.00;;;;;;5008968;28;20088;-53
2023/07/08 08:05:29;;;;;;;7.53;2.22;;;23.80;79.80;;;;;;5009777;28;20034;-54
2023/07/08 08:07:54;;;;;;;4.40;2.28;;;23.80;80.10;;;;;;5008784;28;20041;-54
2023/07/08 08:10:20;;;;;;;9.75;2.20;;;23.70;80.20;;;;;;5013369;28;20036;-54
2023/07/08 08:12:48;;;;;;;4.15;2.17;;;23.70;80.40;;;;;;5028401;28;20082;-54
2023/07/08 08:15:13;;;;;;;4.85;2.25;;;23.70;80.50;;;;;;5023333;28;20037;-54
2023/07/08 08:17:39;;;;;;;8.13;2.65;;;23.70;80.50;;;;;;5028208;28;20076;-54
2023/07/08 08:20:05;;;;;;;46.70;6.55;;;23.70;80.50;;;;;;5023706;28;20030;-53
2023/07/08 08:22:31;;;;;;;30.58;5.28;;;23.70;80.50;;;;;;5011846;28;20022;-54
2023/07/08 08:24:57;;;;;;;37.92;5.32;;;23.70;80.30;;;;;;5018241;28;20033;-53
2023/07/08 08:27:22;;;;;;;41.40;6.18;;;23.70;80.40;;;;;;5027399;28;20394;-54
2023/07/08 08:29:48;;;;;;;24.70;5.10;;;23.80;80.90;;;;;;5024231;28;20033;-54
2023/07/08 08:32:14;;;;;;;33.30;4.93;;;23.80;80.20;;;;;;5029682;28;20042;-54
2023/07/08 08:34:39;;;;;;;38.83;5.93;;;23.80;79.80;;;;;;5014516;28;20030;-54
2023/07/08 08:37:05;;;;;;;26.23;4.82;;;23.90;79.70;;;;;;5020171;28;20069;-53
2023/07/08 08:39:30;;;;;;;17.42;4.53;;;23.90;79.50;;;;;;5027878;28;20412;-53
2023/07/08 08:41:56;;;;;;;30.73;4.75;;;23.90;79.70;;;;;;5024479;28;20038;-53
2023/07/08 08:44:32;;;;;;;32.25;5.13;;;24.00;79.20;;;;;;5009406;28;20042;-54
2023/07/08 08:47:01;;;;;;;20.30;4.18;;;24.00;78.90;;;;;;5009361;28;20439;-52
2023/07/08 08:49:34;;;;;;;33.67;5.10;;;24.00;78.70;;;;;;5011393;28;20091;-54
2023/07/08 08:52:00;;;;;;;30.75;5.22;;;24.10;78.40;;;;;;5008097;28;20046;-53
2023/07/08 08:54:25;;;;;;;30.80;4.60;;;24.10;79.00;;;;;;5024620;28;20045;-54
2023/07/08 08:57:17;;;;;;;27.23;4.97;;;24.20;78.40;;;;;;5027072;28;20060;-52
2023/07/08 08:59:45;;;;;;;18.88;3.58;;;24.20;77.80;;;;;;5021608;28;20493;-53
2023/07/08 09:02:32;;;;;;;22.63;3.90;;;24.20;78.00;;;;;;5023318;28;20036;-53
2023/07/08 09:05:03;;;;;;;31.05;5.00;;;24.20;77.90;;;;;;5013536;28;20042;-54
2023/07/08 09:07:28;;;;;;;30.63;4.35;;;24.30;78.30;;;;;;4997184;28;20030;-58
2023/07/08 09:10:20;;;;;;;21.65;4.68;;;24.30;77.40;;;;;;5023047;28;20021;-58
2023/07/08 09:12:46;;;;;;;37.58;5.88;;;24.40;78.10;;;;;;5028392;28;20095;-58
2023/07/08 09:15:13;;;;;;;25.88;5.13;;;24.40;78.50;;;;;;5040742;28;20444;-58
2023/07/08 09:17:38;;;;;;;48.00;6.55;;;24.40;78.30;;;;;;5030399;28;20033;-58
2023/07/08 09:20:29;;;;;;;55.22;7.00;;;24.50;78.10;;;;;;5025223;28;20029;-58
2023/07/08 09:23:22;;;;;;;52.80;6.30;;;24.50;77.80;;;;;;5021580;28;20072;-58
2023/07/08 09:25:59;;;;;;;57.17;7.43;;;24.50;77.70;;;;;;5012562;28;20025;-58
2023/07/08 09:28:41;;;;;;;69.57;8.73;;;24.60;77.40;;;;;;4994531;28;20026;-58
2023/07/08 09:31:08;;;;;;;37.97;6.20;;;24.60;77.30;;;;;;5019346;28;20033;-58
2023/07/08 09:33:37;;;;;;;68.15;7.50;;;24.60;77.00;;;;;;5009295;28;20490;-58
2023/07/08 09:36:04;;;;;;;83.28;10.50;;;24.70;76.40;;;;;;5026421;28;20034;-57
2023/07/08 09:38:29;;;;;;;45.58;7.85;;;24.70;75.90;;;;;;5006734;28;20034;-57
2023/07/08 09:40:56;;;;;;;93.00;11.80;;;24.80;75.50;;;;;;5013623;28;20171;-57
2023/07/08 09:43:26;;;;;;;62.28;8.93;;;24.80;75.40;;;;;;5024006;28;20495;-58
2023/07/08 09:45:51;;;;;;;73.13;8.30;;;24.80;75.30;;;;;;5006754;28;20081;-57
2023/07/08 09:48:36;;;;;;;76.30;9.90;;;24.80;75.20;;;;;;5002710;28;20022;-57
2023/07/08 09:51:02;;;;;;;76.50;8.48;;;24.90;75.00;;;;;;5039286;28;20030;-57
2023/07/08 09:53:27;;;;;;;70.05;10.00;;;24.90;74.60;;;;;;5007440;28;20054;-58
2023/07/08 09:55:54;;;;;;;59.85;8.43;;;24.90;74.50;;;;;;5017597;28;20026;-57
2023/07/08 09:58:48;;;;;;;60.42;8.10;;;25.00;74.30;;;;;;5041859;28;20041;-57
2023/07/08 10:01:21;;;;;;;45.50;6.72;;;25.10;73.60;;;;;;5028123;28;20037;-57
2023/07/08 10:03:46;;;;;;;60.40;9.30;;;25.10;73.30;;;;;;5029861;28;20033;-57
2023/07/08 10:06:24;;;;;;;67.15;8.68;;;25.10;74.20;;;;;;5029054;28;20028;-57
2023/07/08 10:08:49;;;;;;;46.72;8.68;;;25.20;73.20;;;;;;5035116;28;20038;-57
2023/07/08 10:11:15;;;;;;;59.97;8.70;;;25.20;73.20;;;;;;5018774;28;20057;-57
2023/07/08 10:13:42;;;;;;;63.45;8.55;;;25.20;73.10;;;;;;5023033;28;20040;-57
2023/07/08 10:16:16;;;;;;;61.95;8.90;;;25.30;73.10;;;;;;5028221;28;20034;-57
2023/07/08 10:18:42;;;;;;;70.88;9.80;;;25.30;73.10;;;;;;5004923;28;20056;-57
2023/07/08 10:21:29;;;;;;;81.43;10.35;;;25.30;73.00;;;;;;5020739;28;20442;-57
2023/07/08 10:24:28;;;;;;;60.03;8.10;;;25.30;73.00;;;;;;5026842;28;20034;-57
2023/07/08 10:27:05;;;;;;;75.10;8.85;;;25.30;72.80;;;;;;5025429;28;20032;-57
2023/07/08 10:29:58;;;;;;;70.68;9.25;;;25.40;72.40;;;;;;5022226;28;20028;-57
2023/07/08 10:32:42;;;;;;;91.85;11.35;;;25.40;72.30;;;;;;5016745;28;20030;-57
2023/07/08 10:35:18;;;;;;;96.32;10.90;;;25.40;71.90;;;;;;5007071;28;20030;-59
2023/07/08 10:37:57;;;;;;;53.97;9.15;;;25.40;71.90;;;;;;5024083;28;20037;-58
2023/07/08 10:40:42;;;;;;;71.63;9.85;;;25.40;71.70;;;;;;5011171;28;20029;-58
2023/07/08 10:43:24;;;;;;;63.63;8.13;;;25.40;71.70;;;;;;5025595;28;20053;-58
2023/07/08 10:45:55;;;;;;;40.30;7.80;;;25.40;71.70;;;;;;5027056;28;20545;-58
2023/07/08 10:48:36;;;;;;;45.85;7.38;;;25.40;71.60;;;;;;5025611;28;20084;-58
2023/07/08 10:51:26;;;;;;;64.32;9.77;;;25.40;71.70;;;;;;5026366;28;20026;-58
2023/07/08 10:54:10;;;;;;;52.80;9.10;;;25.50;71.70;;;;;;5024741;28;20110;-58
2023/07/08 10:57:10;;;;;;;72.07;11.07;;;25.50;71.90;;;;;;5025377;28;20033;-57
2023/07/08 10:59:44;;;;;;;67.35;9.73;;;25.60;71.90;;;;;;5025187;28;20030;-58
2023/07/08 11:02:33;;;;;;;61.97;8.05;;;25.60;72.00;;;;;;5021381;28;20022;-58
2023/07/08 11:05:22;;;;;;;50.10;8.35;;;25.60;72.10;;;;;;5004598;28;20060;-58
2023/07/08 11:08:08;;;;;;;55.72;7.65;;;25.70;71.90;;;;;;4991464;28;20528;-58
2023/07/08 11:10:41;;;;;;;51.42;7.80;;;25.70;71.90;;;;;;4984063;28;20041;-58
2023/07/08 11:13:12;;;;;;;47.13;7.53;;;25.70;72.70;;;;;;5021427;28;20062;-57
2023/07/08 11:15:46;;;;;;;51.22;7.03;;;25.80;73.60;;;;;;5014383;28;20057;-58
2023/07/08 11:18:39;;;;;;;60.35;8.38;;;25.80;74.40;;;;;;5021187;28;20102;-58
2023/07/08 11:21:10;;;;;;;51.47;9.13;;;25.80;75.10;;;;;;5005962;28;20030;-58
2023/07/08 11:23:56;;;;;;;83.72;10.35;;;25.80;75.30;;;;;;5010382;28;20042;-58
2023/07/08 11:26:33;;;;;;;64.45;9.93;;;25.90;75.90;;;;;;5023761;28;20037;-57
2023/07/08 11:28:59;;;;;;;49.85;8.50;;;25.90;76.70;;;;;;5024611;28;20060;-55
2023/07/08 11:31:26;;;;;;;67.97;9.52;;;25.90;76.50;;;;;;5023640;28;20036;-57
2023/07/08 11:33:51;;;;;;;108.47;12.50;;;25.90;76.80;;;;;;4991471;28;20030;-58
2023/07/08 11:36:17;;;;;;;62.47;11.82;;;25.90;77.20;;;;;;5027819;28;20081;-56
2023/07/08 11:38:58;;;;;;;75.43;11.20;;;25.90;77.60;;;;;;5011817;28;20050;-56
2023/07/08 11:41:26;;;;;;;115.18;14.63;;;26.00;78.00;;;;;;5027942;28;20063;-56
2023/07/08 11:43:53;;;;;;;91.35;14.05;;;26.00;78.40;;;;;;5028500;28;20065;-56
2023/07/08 11:46:20;;;;;;;69.60;12.20;;;26.00;78.50;;;;;;5024517;28;20054;-56
2023/07/08 11:48:48;;;;;;;55.97;10.55;;;26.00;78.50;;;;;;5019654;28;20030;-56
2023/07/08 11:51:24;;;;;;;53.50;9.95;;;26.00;78.30;;;;;;5027444;28;20022;-56
2023/07/08 11:53:51;;;;;;;60.50;9.48;;;26.10;78.60;;;;;;5019718;28;20053;-58
2023/07/08 11:56:21;;;;;;;75.57;11.50;;;26.10;78.70;;;;;;5017035;28;20030;-56
2023/07/08 11:58:50;;;;;;;48.35;10.25;;;26.10;78.40;;;;;;5027857;28;20072;-56
2023/07/08 12:01:39;;;;;;;63.03;10.75;;;26.20;79.00;;;;;;5025309;28;20058;-57
2023/07/08 12:04:07;;;;;;;39.50;8.05;;;26.20;78.90;;;;;;5019891;28;20104;-56
2023/07/08 12:06:36;;;;;;;75.97;11.25;;;26.20;79.20;;;;;;5027684;28;20026;-57
2023/07/08 12:09:21;;;;;;;52.72;9.75;;;26.20;79.20;;;;;;5022698;28;20025;-56
2023/07/08 12:11:53;;;;;;;32.13;7.30;;;26.20;79.00;;;;;;5012901;28;20029;-57
2023/07/08 12:14:18;;;;;;;76.00;10.32;;;26.30;78.70;;;;;;4990504;28;20501;-56
2023/07/08 12:16:44;;;;;;;48.85;7.68;;;26.20;78.80;;;;;;4991974;28;20034;-57
2023/07/08 12:19:13;;;;;;;54.85;8.75;;;26.30;78.80;;;;;;5000119;28;20062;-56
2023/07/08 12:21:38;;;;;;;50.45;8.32;;;26.30;79.00;;;;;;4996863;28;20044;-56
2023/07/08 12:24:05;;;;;;;43.83;7.28;;;26.40;78.80;;;;;;5020381;28;20129;-56
2023/07/08 12:26:32;;;;;;;30.90;6.55;;;26.50;78.30;;;;;;5015965;28;20022;-56
2023/07/08 12:28:57;;;;;;;25.67;6.00;;;26.50;78.10;;;;;;5018590;28;20054;-56
2023/07/08 12:31:23;;;;;;;38.50;6.93;;;26.60;78.10;;;;;;5024950;28;20029;-56
2023/07/08 12:33:49;;;;;;;38.65;8.27;;;26.70;77.70;;;;;;5023635;28;20026;-56
2023/07/08 12:36:28;;;;;;;36.10;6.22;;;26.80;77.60;;;;;;4994696;28;20461;-56
2023/07/08 12:38:55;;;;;;;43.33;7.47;;;26.90;77.00;;;;;;5022613;28;20057;-56
2023/07/08 12:41:22;;;;;;;37.75;7.07;;;27.00;76.70;;;;;;5016490;28;20030;-56
2023/07/08 12:43:48;;;;;;;38.53;6.75;;;27.10;76.50;;;;;;5007755;28;20086;-56
2023/07/08 12:46:15;;;;;;;19.20;5.25;;;27.20;76.30;;;;;;5007032;28;20042;-56
2023/07/08 12:48:40;;;;;;;24.75;5.65;;;27.30;76.00;;;;;;5022816;28;20026;-56